Terminal Aerodrome Forecast
Issued by NWS Tuscon, AZ

Home | Current Version | Previous Version | Text Only | Print | Product List | Glossary On
Versions: 1 2 3 4 5 6 7 8 9 10 11 12
437
FTUS45 KTWC 271738
TAFDUG
TAF
KDUG 271738Z 2718/2818 17010KT P6SM BKN250
     FM271930 23019G29KT P6SM SCT120 OVC200
     FM280200 21014KT P6SM BKN120 OVC200
     FM280800 18015G23KT P6SM SCT070 BKN120=

USA.gov is the U.S. government's official web portal to all federal, state and local government web resources and services.